< < Back
Terminal Aerodrome Forecast


Current Version              Previous Versions:   1  2  3  4  5  6  7  8  9  

Terminal Aerodrome Forecast

136
FTUS44 KOHX 270700 AAB
TAFCSV
TAF AMD
KCSV 270706Z 2707/2806 29004KT 3SM BR SCT002
      TEMPO 2707/2710 1/2SM FG VV001
     FM271000 29005KT 4SM BR BKN004
     FM271300 02008G16KT P6SM SKC
     FM280000 02004KT P6SM SKC=

Latest METAR

862
SAUS70 KWBC 271800 RRA
MTRCSV
METAR KCSV 271753Z AUTO 04009KT 10SM CLR 15/00 A2995 RMK AO2 SLP136
T01500000 10156 20061 58013


USA.gov is the U.S. government's official web portal to all federal, state and local government web resources and services.